sensor_id;sensor_type;location;lat;lon;timestamp;pressure;altitude;pressure_sealevel;temperature;humidity
74268;BME280;62638;51.362;12.472;2023-04-03T00:00:51;101353.63;;;1.80;80.66
74268;BME280;62638;51.362;12.472;2023-04-03T00:03:17;101356.97;;;1.85;80.04
74268;BME280;62638;51.362;12.472;2023-04-03T00:05:43;101354.69;;;1.76;79.79
74268;BME280;62638;51.362;12.472;2023-04-03T00:08:08;101352.94;;;1.75;80.08
74268;BME280;62638;51.362;12.472;2023-04-03T00:10:38;101361.97;;;1.69;80.36
74268;BME280;62638;51.362;12.472;2023-04-03T00:13:04;101361.41;;;1.61;80.69
74268;BME280;62638;51.362;12.472;2023-04-03T00:15:30;101358.72;;;1.63;80.48
74268;BME280;62638;51.362;12.472;2023-04-03T00:17:55;101364.50;;;1.51;81.75
74268;BME280;62638;51.362;12.472;2023-04-03T00:20:20;101360.25;;;1.47;81.89
74268;BME280;62638;51.362;12.472;2023-04-03T00:22:46;101359.78;;;1.35;82.21
74268;BME280;62638;51.362;12.472;2023-04-03T00:25:11;101366.28;;;1.27;82.89
74268;BME280;62638;51.362;12.472;2023-04-03T00:27:38;101366.22;;;1.28;83.29
74268;BME280;62638;51.362;12.472;2023-04-03T00:30:05;101370.06;;;1.20;82.82
74268;BME280;62638;51.362;12.472;2023-04-03T00:32:31;101361.34;;;1.18;82.88
74268;BME280;62638;51.362;12.472;2023-04-03T00:34:57;101364.38;;;1.07;83.32
74268;BME280;62638;51.362;12.472;2023-04-03T00:37:23;101372.47;;;1.03;83.88
74268;BME280;62638;51.362;12.472;2023-04-03T00:39:48;101365.59;;;0.99;83.97
74268;BME280;62638;51.362;12.472;2023-04-03T00:42:13;101365.97;;;0.88;84.04
74268;BME280;62638;51.362;12.472;2023-04-03T00:47:07;101372.28;;;0.84;83.91
74268;BME280;62638;51.362;12.472;2023-04-03T00:49:33;101360.97;;;0.80;83.96
74268;BME280;62638;51.362;12.472;2023-04-03T00:52:00;101367.81;;;0.86;83.46
74268;BME280;62638;51.362;12.472;2023-04-03T00:54:26;101367.03;;;0.82;83.76
74268;BME280;62638;51.362;12.472;2023-04-03T00:56:52;101366.53;;;0.73;84.05
74268;BME280;62638;51.362;12.472;2023-04-03T00:59:22;101369.25;;;0.70;84.22
74268;BME280;62638;51.362;12.472;2023-04-03T01:01:50;101371.03;;;0.69;84.56
74268;BME280;62638;51.362;12.472;2023-04-03T01:04:33;101372.13;;;0.64;84.61
74268;BME280;62638;51.362;12.472;2023-04-03T01:07:11;101378.63;;;0.54;84.83
74268;BME280;62638;51.362;12.472;2023-04-03T01:09:38;101371.88;;;0.45;85.19
74268;BME280;62638;51.362;12.472;2023-04-03T01:12:19;101378.06;;;0.44;85.16
74268;BME280;62638;51.362;12.472;2023-04-03T01:14:45;101373.09;;;0.35;86.30
74268;BME280;62638;51.362;12.472;2023-04-03T01:17:38;101379.41;;;0.31;86.32
74268;BME280;62638;51.362;12.472;2023-04-03T01:25:44;101388.94;;;0.09;87.48
74268;BME280;62638;51.362;12.472;2023-04-03T01:28:16;101378.72;;;-0.01;87.71
74268;BME280;62638;51.362;12.472;2023-04-03T01:30:59;101382.38;;;-0.06;88.49
74268;BME280;62638;51.362;12.472;2023-04-03T01:33:27;101380.50;;;-0.03;88.06
74268;BME280;62638;51.362;12.472;2023-04-03T01:35:52;101378.75;;;-0.02;88.09
74268;BME280;62638;51.362;12.472;2023-04-03T01:38:17;101385.13;;;-0.09;88.11
74268;BME280;62638;51.362;12.472;2023-04-03T01:40:43;101384.25;;;-0.10;88.06
74268;BME280;62638;51.362;12.472;2023-04-03T01:43:08;101389.28;;;-0.02;88.01
74268;BME280;62638;51.362;12.472;2023-04-03T01:45:34;101379.78;;;-0.08;87.66
74268;BME280;62638;51.362;12.472;2023-04-03T01:47:59;101386.06;;;-0.12;88.00
74268;BME280;62638;51.362;12.472;2023-04-03T01:50:25;101389.72;;;-0.16;88.60
74268;BME280;62638;51.362;12.472;2023-04-03T01:52:50;101395.69;;;-0.11;88.34
74268;BME280;62638;51.362;12.472;2023-04-03T01:55:15;101394.03;;;-0.13;88.91
74268;BME280;62638;51.362;12.472;2023-04-03T01:57:40;101396.88;;;-0.21;89.00
74268;BME280;62638;51.362;12.472;2023-04-03T02:00:06;101402.16;;;-0.21;88.64
74268;BME280;62638;51.362;12.472;2023-04-03T02:02:32;101402.00;;;-0.16;88.87
74268;BME280;62638;51.362;12.472;2023-04-03T02:04:58;101400.25;;;-0.16;89.26
74268;BME280;62638;51.362;12.472;2023-04-03T02:07:23;101410.91;;;-0.20;89.12
74268;BME280;62638;51.362;12.472;2023-04-03T02:09:48;101417.78;;;-0.15;89.26
74268;BME280;62638;51.362;12.472;2023-04-03T02:12:13;101410.00;;;-0.19;89.58
74268;BME280;62638;51.362;12.472;2023-04-03T02:14:39;101415.31;;;-0.21;89.22
74268;BME280;62638;51.362;12.472;2023-04-03T02:17:04;101416.44;;;-0.28;89.96
74268;BME280;62638;51.362;12.472;2023-04-03T02:19:33;101413.03;;;-0.31;90.14
74268;BME280;62638;51.362;12.472;2023-04-03T02:21:59;101420.84;;;-0.30;89.76
74268;BME280;62638;51.362;12.472;2023-04-03T02:24:24;101415.69;;;-0.33;89.88
74268;BME280;62638;51.362;12.472;2023-04-03T02:26:49;101426.31;;;-0.36;90.13
74268;BME280;62638;51.362;12.472;2023-04-03T02:29:14;101417.66;;;-0.39;90.10
74268;BME280;62638;51.362;12.472;2023-04-03T02:31:40;101434.16;;;-0.34;90.73
74268;BME280;62638;51.362;12.472;2023-04-03T02:34:05;101425.56;;;-0.39;90.35
74268;BME280;62638;51.362;12.472;2023-04-03T02:36:31;101435.22;;;-0.40;90.44
74268;BME280;62638;51.362;12.472;2023-04-03T02:38:56;101424.13;;;-0.51;91.29
74268;BME280;62638;51.362;12.472;2023-04-03T02:41:21;101439.38;;;-0.62;91.69
74268;BME280;62638;51.362;12.472;2023-04-03T02:43:47;101433.56;;;-0.73;92.30
74268;BME280;62638;51.362;12.472;2023-04-03T02:46:12;101443.19;;;-0.72;92.85
74268;BME280;62638;51.362;12.472;2023-04-03T02:48:40;101432.84;;;-0.78;92.43
74268;BME280;62638;51.362;12.472;2023-04-03T02:51:05;101431.22;;;-0.82;92.67
74268;BME280;62638;51.362;12.472;2023-04-03T02:53:30;101434.88;;;-0.88;93.45
74268;BME280;62638;51.362;12.472;2023-04-03T02:55:56;101437.06;;;-1.04;94.00
74268;BME280;62638;51.362;12.472;2023-04-03T02:58:21;101440.03;;;-0.85;93.47
74268;BME280;62638;51.362;12.472;2023-04-03T03:00:46;101442.16;;;-0.99;93.83
74268;BME280;62638;51.362;12.472;2023-04-03T03:03:12;101447.59;;;-1.04;94.40
74268;BME280;62638;51.362;12.472;2023-04-03T03:05:39;101441.41;;;-1.03;94.68
74268;BME280;62638;51.362;12.472;2023-04-03T03:08:04;101452.16;;;-1.12;94.65
74268;BME280;62638;51.362;12.472;2023-04-03T03:10:29;101446.06;;;-1.12;94.55
74268;BME280;62638;51.362;12.472;2023-04-03T03:12:55;101448.13;;;-1.25;95.08
74268;BME280;62638;51.362;12.472;2023-04-03T03:15:20;101454.88;;;-1.15;95.20
74268;BME280;62638;51.362;12.472;2023-04-03T03:17:45;101437.69;;;-1.26;95.42
74268;BME280;62638;51.362;12.472;2023-04-03T03:20:11;101448.97;;;-1.23;95.50
74268;BME280;62638;51.362;12.472;2023-04-03T03:22:39;101456.84;;;-1.23;95.88
74268;BME280;62638;51.362;12.472;2023-04-03T03:25:04;101455.22;;;-1.27;95.64
74268;BME280;62638;51.362;12.472;2023-04-03T03:27:30;101461.31;;;-1.26;95.82
74268;BME280;62638;51.362;12.472;2023-04-03T03:29:55;101466.69;;;-1.31;96.08
74268;BME280;62638;51.362;12.472;2023-04-03T03:32:20;101457.94;;;-1.31;95.75
74268;BME280;62638;51.362;12.472;2023-04-03T03:34:46;101462.09;;;-1.23;95.45
74268;BME280;62638;51.362;12.472;2023-04-03T03:37:11;101461.44;;;-1.31;95.70
74268;BME280;62638;51.362;12.472;2023-04-03T03:39:36;101467.78;;;-1.40;96.23
74268;BME280;62638;51.362;12.472;2023-04-03T03:42:02;101467.91;;;-1.44;96.46
74268;BME280;62638;51.362;12.472;2023-04-03T03:44:27;101469.41;;;-1.34;96.14
74268;BME280;62638;51.362;12.472;2023-04-03T03:46:54;101464.38;;;-1.43;96.56
74268;BME280;62638;51.362;12.472;2023-04-03T03:49:19;101467.03;;;-1.45;96.60
74268;BME280;62638;51.362;12.472;2023-04-03T03:51:45;101474.28;;;-1.54;97.06
74268;BME280;62638;51.362;12.472;2023-04-03T03:54:10;101458.72;;;-1.62;97.33
74268;BME280;62638;51.362;12.472;2023-04-03T03:56:36;101466.47;;;-1.56;97.71
74268;BME280;62638;51.362;12.472;2023-04-03T03:59:01;101462.88;;;-1.53;97.01
74268;BME280;62638;51.362;12.472;2023-04-03T04:01:26;101464.00;;;-1.63;97.51
74268;BME280;62638;51.362;12.472;2023-04-03T04:03:52;101470.09;;;-1.61;97.75
74268;BME280;62638;51.362;12.472;2023-04-03T04:06:19;101468.28;;;-1.59;97.68
74268;BME280;62638;51.362;12.472;2023-04-03T04:08:44;101470.97;;;-1.61;97.55
74268;BME280;62638;51.362;12.472;2023-04-03T04:11:09;101471.97;;;-1.66;98.04
74268;BME280;62638;51.362;12.472;2023-04-03T04:13:34;101473.91;;;-1.74;98.21
74268;BME280;62638;51.362;12.472;2023-04-03T04:16:00;101469.44;;;-1.71;98.80
74268;BME280;62638;51.362;12.472;2023-04-03T04:18:26;101475.66;;;-1.73;98.65
74268;BME280;62638;51.362;12.472;2023-04-03T04:20:51;101483.34;;;-1.66;98.38
74268;BME280;62638;51.362;12.472;2023-04-03T04:23:17;101470.50;;;-1.78;98.28
74268;BME280;62638;51.362;12.472;2023-04-03T04:25:47;101485.19;;;-1.71;98.35
74268;BME280;62638;51.362;12.472;2023-04-03T04:28:12;101477.19;;;-1.65;97.82
74268;BME280;62638;51.362;12.472;2023-04-03T04:30:38;101495.63;;;-1.68;97.56
74268;BME280;62638;51.362;12.472;2023-04-03T04:33:03;101479.09;;;-1.71;97.77
74268;BME280;62638;51.362;12.472;2023-04-03T04:35:29;101487.63;;;-1.63;97.24
74268;BME280;62638;51.362;12.472;2023-04-03T04:37:55;101485.47;;;-1.81;97.07
74268;BME280;62638;51.362;12.472;2023-04-03T04:40:20;101491.50;;;-1.78;97.74
74268;BME280;62638;51.362;12.472;2023-04-03T04:42:46;101497.66;;;-1.79;98.04
74268;BME280;62638;51.362;12.472;2023-04-03T04:45:11;101501.03;;;-1.74;97.89
74268;BME280;62638;51.362;12.472;2023-04-03T04:47:36;101497.63;;;-1.77;97.86
74268;BME280;62638;51.362;12.472;2023-04-03T04:50:02;101503.66;;;-1.74;97.36
74268;BME280;62638;51.362;12.472;2023-04-03T04:52:27;101494.06;;;-1.75;97.22
74268;BME280;62638;51.362;12.472;2023-04-03T04:54:53;101496.75;;;-1.78;97.35
74268;BME280;62638;51.362;12.472;2023-04-03T04:57:18;101514.28;;;-1.80;97.33
74268;BME280;62638;51.362;12.472;2023-04-03T04:59:43;101509.84;;;-1.76;97.39
74268;BME280;62638;51.362;12.472;2023-04-03T05:02:08;101518.66;;;-1.79;97.22
74268;BME280;62638;51.362;12.472;2023-04-03T05:04:34;101520.28;;;-1.73;97.22
74268;BME280;62638;51.362;12.472;2023-04-03T05:06:59;101520.69;;;-1.55;96.11
74268;BME280;62638;51.362;12.472;2023-04-03T05:09:25;101527.03;;;-1.26;95.02
74268;BME280;62638;51.362;12.472;2023-04-03T05:11:50;101528.34;;;-1.10;93.84
74268;BME280;62638;51.362;12.472;2023-04-03T05:14:16;101530.88;;;-1.06;93.07
74268;BME280;62638;51.362;12.472;2023-04-03T05:16:41;101527.41;;;-1.08;92.65
74268;BME280;62638;51.362;12.472;2023-04-03T05:19:06;101533.41;;;-1.03;92.25
74268;BME280;62638;51.362;12.472;2023-04-03T05:21:32;101526.91;;;-0.88;91.88
74268;BME280;62638;51.362;12.472;2023-04-03T05:24:00;101530.47;;;-0.91;91.59
74268;BME280;62638;51.362;12.472;2023-04-03T05:26:29;101528.53;;;-0.84;90.86
74268;BME280;62638;51.362;12.472;2023-04-03T05:28:55;101544.19;;;-0.78;90.47
74268;BME280;62638;51.362;12.472;2023-04-03T05:31:20;101537.06;;;-0.74;90.02
74268;BME280;62638;51.362;12.472;2023-04-03T05:33:45;101541.13;;;-0.63;89.74
74268;BME280;62638;51.362;12.472;2023-04-03T05:36:11;101537.53;;;-0.60;89.51
74268;BME280;62638;51.362;12.472;2023-04-03T05:38:37;101540.75;;;-0.49;89.33
74268;BME280;62638;51.362;12.472;2023-04-03T05:41:03;101549.31;;;-0.42;88.66
74268;BME280;62638;51.362;12.472;2023-04-03T05:43:28;101549.19;;;-0.38;88.39
74268;BME280;62638;51.362;12.472;2023-04-03T05:45:54;101543.84;;;-0.35;88.37
74268;BME280;62638;51.362;12.472;2023-04-03T05:48:19;101545.78;;;-0.11;87.93
74268;BME280;62638;51.362;12.472;2023-04-03T05:50:45;101550.50;;;-0.22;87.20
74268;BME280;62638;51.362;12.472;2023-04-03T05:53:17;101554.47;;;-0.09;87.02
74268;BME280;62638;51.362;12.472;2023-04-03T05:55:43;101552.63;;;-0.05;86.44
74268;BME280;62638;51.362;12.472;2023-04-03T05:58:08;101563.41;;;0.17;85.79
74268;BME280;62638;51.362;12.472;2023-04-03T06:00:33;101562.06;;;0.02;85.90
74268;BME280;62638;51.362;12.472;2023-04-03T06:02:59;101564.94;;;0.24;85.86
74268;BME280;62638;51.362;12.472;2023-04-03T06:05:24;101571.19;;;0.20;85.05
74268;BME280;62638;51.362;12.472;2023-04-03T06:07:50;101564.44;;;0.39;84.68
74268;BME280;62638;51.362;12.472;2023-04-03T06:10:16;101565.69;;;0.27;83.96
74268;BME280;62638;51.362;12.472;2023-04-03T06:12:41;101573.00;;;0.47;84.50
74268;BME280;62638;51.362;12.472;2023-04-03T06:15:07;101584.97;;;0.57;83.29
74268;BME280;62638;51.362;12.472;2023-04-03T06:17:35;101580.69;;;0.53;83.69
74268;BME280;62638;51.362;12.472;2023-04-03T06:20:01;101578.16;;;0.50;82.94
74268;BME280;62638;51.362;12.472;2023-04-03T06:22:26;101578.13;;;0.78;83.65
74268;BME280;62638;51.362;12.472;2023-04-03T06:24:54;101584.50;;;0.72;82.58
74268;BME280;62638;51.362;12.472;2023-04-03T06:27:20;101577.81;;;0.61;82.79
74268;BME280;62638;51.362;12.472;2023-04-03T06:29:45;101582.88;;;0.68;83.03
74268;BME280;62638;51.362;12.472;2023-04-03T06:32:10;101578.72;;;0.87;82.41
74268;BME280;62638;51.362;12.472;2023-04-03T06:34:36;101587.44;;;1.16;81.31
74268;BME280;62638;51.362;12.472;2023-04-03T06:37:01;101590.22;;;1.11;81.12
74268;BME280;62638;51.362;12.472;2023-04-03T06:39:27;101587.91;;;1.02;80.64
74268;BME280;62638;51.362;12.472;2023-04-03T06:41:52;101586.44;;;1.20;79.62
74268;BME280;62638;51.362;12.472;2023-04-03T06:44:17;101591.03;;;1.13;79.52
74268;BME280;62638;51.362;12.472;2023-04-03T06:46:43;101589.97;;;1.44;78.47
74268;BME280;62638;51.362;12.472;2023-04-03T06:49:09;101594.50;;;1.40;78.03
74268;BME280;62638;51.362;12.472;2023-04-03T06:51:35;101597.59;;;1.53;77.66
74268;BME280;62638;51.362;12.472;2023-04-03T06:54:01;101599.78;;;1.65;77.22
74268;BME280;62638;51.362;12.472;2023-04-03T06:56:27;101596.94;;;1.71;76.05
74268;BME280;62638;51.362;12.472;2023-04-03T06:58:53;101598.59;;;1.73;75.41
74268;BME280;62638;51.362;12.472;2023-04-03T07:01:20;101601.16;;;1.76;76.00
74268;BME280;62638;51.362;12.472;2023-04-03T07:03:46;101608.13;;;1.77;74.85
74268;BME280;62638;51.362;12.472;2023-04-03T07:06:14;101601.31;;;1.72;74.57
74268;BME280;62638;51.362;12.472;2023-04-03T07:08:41;101595.88;;;1.76;74.23
74268;BME280;62638;51.362;12.472;2023-04-03T07:11:08;101594.56;;;2.11;73.14
74268;BME280;62638;51.362;12.472;2023-04-03T07:13:34;101604.06;;;2.39;72.60
74268;BME280;62638;51.362;12.472;2023-04-03T07:15:59;101607.03;;;2.31;70.01
74268;BME280;62638;51.362;12.472;2023-04-03T07:18:25;101612.66;;;2.22;71.53
74268;BME280;62638;51.362;12.472;2023-04-03T07:20:51;101603.69;;;2.26;70.32
74268;BME280;62638;51.362;12.472;2023-04-03T07:23:17;101608.75;;;2.32;70.53
74268;BME280;62638;51.362;12.472;2023-04-03T07:25:46;101615.50;;;2.39;69.97
74268;BME280;62638;51.362;12.472;2023-04-03T07:28:13;101607.03;;;2.31;69.53
74268;BME280;62638;51.362;12.472;2023-04-03T07:30:45;101622.25;;;2.69;68.92
74268;BME280;62638;51.362;12.472;2023-04-03T07:33:12;101622.06;;;2.74;68.01
74268;BME280;62638;51.362;12.472;2023-04-03T07:35:38;101629.78;;;2.80;68.01
74268;BME280;62638;51.362;12.472;2023-04-03T07:38:03;101620.53;;;2.68;66.92
74268;BME280;62638;51.362;12.472;2023-04-03T07:40:29;101626.00;;;2.86;66.06
74268;BME280;62638;51.362;12.472;2023-04-03T07:42:54;101629.03;;;2.77;65.89
74268;BME280;62638;51.362;12.472;2023-04-03T07:45:21;101641.94;;;3.28;66.96
74268;BME280;62638;51.362;12.472;2023-04-03T07:47:48;101639.56;;;3.42;64.82
74268;BME280;62638;51.362;12.472;2023-04-03T07:50:13;101637.78;;;3.62;66.78
74268;BME280;62638;51.362;12.472;2023-04-03T07:52:38;101623.03;;;3.15;64.77
74268;BME280;62638;51.362;12.472;2023-04-03T07:55:04;101636.88;;;3.43;65.04
74268;BME280;62638;51.362;12.472;2023-04-03T07:57:29;101630.16;;;3.55;65.25
74268;BME280;62638;51.362;12.472;2023-04-03T07:59:55;101635.59;;;3.72;63.30
74268;BME280;62638;51.362;12.472;2023-04-03T08:02:20;101643.47;;;3.33;64.90
74268;BME280;62638;51.362;12.472;2023-04-03T08:04:45;101638.19;;;3.11;65.78
74268;BME280;62638;51.362;12.472;2023-04-03T08:07:11;101630.13;;;2.49;66.71
74268;BME280;62638;51.362;12.472;2023-04-03T08:09:36;101634.25;;;2.10;67.18
74268;BME280;62638;51.362;12.472;2023-04-03T08:12:01;101634.94;;;2.15;68.29
74268;BME280;62638;51.362;12.472;2023-04-03T08:14:27;101633.84;;;2.44;67.83
74268;BME280;62638;51.362;12.472;2023-04-03T08:16:52;101630.56;;;3.04;65.57
74268;BME280;62638;51.362;12.472;2023-04-03T08:19:17;101636.47;;;3.52;62.88
74268;BME280;62638;51.362;12.472;2023-04-03T08:21:44;101638.97;;;3.55;62.05
74268;BME280;62638;51.362;12.472;2023-04-03T08:24:10;101628.06;;;3.63;61.36
74268;BME280;62638;51.362;12.472;2023-04-03T08:26:35;101630.22;;;4.14;60.90
74268;BME280;62638;51.362;12.472;2023-04-03T08:29:01;101623.41;;;4.46;60.63
74268;BME280;62638;51.362;12.472;2023-04-03T08:31:27;101629.03;;;4.40;60.90
74268;BME280;62638;51.362;12.472;2023-04-03T08:33:52;101629.88;;;4.78;60.13
74268;BME280;62638;51.362;12.472;2023-04-03T08:36:26;101630.72;;;4.60;57.34
74268;BME280;62638;51.362;12.472;2023-04-03T08:38:53;101635.94;;;4.05;58.97
74268;BME280;62638;51.362;12.472;2023-04-03T08:41:35;101631.81;;;3.37;61.53
74268;BME280;62638;51.362;12.472;2023-04-03T08:44:13;101630.69;;;3.43;60.84
74268;BME280;62638;51.362;12.472;2023-04-03T08:49:44;101630.34;;;4.11;58.78
74268;BME280;62638;51.362;12.472;2023-04-03T08:52:19;101637.59;;;3.87;59.11
74268;BME280;62638;51.362;12.472;2023-04-03T08:54:55;101634.31;;;4.40;56.43
74268;BME280;62638;51.362;12.472;2023-04-03T08:57:38;101640.91;;;4.50;54.71
74268;BME280;62638;51.362;12.472;2023-04-03T09:00:11;101638.59;;;4.98;54.38
74268;BME280;62638;51.362;12.472;2023-04-03T09:02:43;101637.03;;;4.76;55.04
74268;BME280;62638;51.362;12.472;2023-04-03T09:05:16;101629.53;;;5.02;54.90
74268;BME280;62638;51.362;12.472;2023-04-03T09:07:55;101649.91;;;4.83;51.23
74268;BME280;62638;51.362;12.472;2023-04-03T09:10:27;101637.88;;;4.57;51.60
74268;BME280;62638;51.362;12.472;2023-04-03T09:12:59;101624.56;;;4.59;51.34
74268;BME280;62638;51.362;12.472;2023-04-03T09:15:26;101646.41;;;4.45;50.83
74268;BME280;62638;51.362;12.472;2023-04-03T09:18:15;101647.78;;;4.54;50.23
74268;BME280;62638;51.362;12.472;2023-04-03T09:20:53;101641.72;;;5.42;50.50
74268;BME280;62638;51.362;12.472;2023-04-03T09:23:33;101646.09;;;5.43;51.17
74268;BME280;62638;51.362;12.472;2023-04-03T09:26:05;101650.31;;;5.12;54.40
74268;BME280;62638;51.362;12.472;2023-04-03T09:28:38;101639.34;;;5.00;55.37
74268;BME280;62638;51.362;12.472;2023-04-03T09:31:17;101641.78;;;5.05;52.45
74268;BME280;62638;51.362;12.472;2023-04-03T09:33:43;101650.56;;;5.07;51.10
74268;BME280;62638;51.362;12.472;2023-04-03T09:36:10;101650.06;;;4.99;52.00
74268;BME280;62638;51.362;12.472;2023-04-03T09:38:36;101651.84;;;4.98;54.16
74268;BME280;62638;51.362;12.472;2023-04-03T09:43:29;101647.06;;;4.50;51.87
74268;BME280;62638;51.362;12.472;2023-04-03T09:45:56;101649.31;;;3.82;52.41
74268;BME280;62638;51.362;12.472;2023-04-03T09:48:50;101651.16;;;3.59;53.89
74268;BME280;62638;51.362;12.472;2023-04-03T09:51:16;101647.78;;;3.76;52.92
74268;BME280;62638;51.362;12.472;2023-04-03T09:53:43;101631.88;;;4.35;52.21
74268;BME280;62638;51.362;12.472;2023-04-03T09:58:46;101649.28;;;5.50;48.95
74268;BME280;62638;51.362;12.472;2023-04-03T10:01:26;101641.19;;;6.20;49.48
74268;BME280;62638;51.362;12.472;2023-04-03T10:06:38;101647.31;;;5.54;48.91
74268;BME280;62638;51.362;12.472;2023-04-03T10:09:16;101635.06;;;5.51;48.46
74268;BME280;62638;51.362;12.472;2023-04-03T10:11:58;101629.19;;;5.44;46.39
74268;BME280;62638;51.362;12.472;2023-04-03T10:14:26;101629.59;;;5.37;45.28
74268;BME280;62638;51.362;12.472;2023-04-03T10:17:02;101618.66;;;5.95;48.88
74268;BME280;62638;51.362;12.472;2023-04-03T10:19:40;101622.88;;;5.64;45.58
74268;BME280;62638;51.362;12.472;2023-04-03T10:22:37;101616.31;;;5.54;46.70
74268;BME280;62638;51.362;12.472;2023-04-03T10:28:00;101615.41;;;6.69;46.18
74268;BME280;62638;51.362;12.472;2023-04-03T10:30:33;101628.06;;;6.81;45.53
74268;BME280;62638;51.362;12.472;2023-04-03T10:36:14;101623.38;;;7.76;44.55
74268;BME280;62638;51.362;12.472;2023-04-03T10:39:04;101609.75;;;7.95;42.04
74268;BME280;62638;51.362;12.472;2023-04-03T10:41:45;101601.41;;;8.43;44.05
74268;BME280;62638;51.362;12.472;2023-04-03T10:44:36;101605.06;;;7.70;44.34
74268;BME280;62638;51.362;12.472;2023-04-03T10:49:43;101604.75;;;5.55;49.55
74268;BME280;62638;51.362;12.472;2023-04-03T10:52:20;101598.31;;;4.72;50.91
74268;BME280;62638;51.362;12.472;2023-04-03T10:57:17;101601.22;;;4.48;52.43
74268;BME280;62638;51.362;12.472;2023-04-03T10:59:58;101603.72;;;4.51;53.19
74268;BME280;62638;51.362;12.472;2023-04-03T11:02:33;101597.41;;;4.35;52.73
74268;BME280;62638;51.362;12.472;2023-04-03T11:05:07;101600.25;;;4.49;52.94
74268;BME280;62638;51.362;12.472;2023-04-03T11:07:43;101604.72;;;5.03;50.72
74268;BME280;62638;51.362;12.472;2023-04-03T11:10:35;101593.03;;;6.09;50.08
74268;BME280;62638;51.362;12.472;2023-04-03T11:13:24;101595.03;;;5.71;49.54
74268;BME280;62638;51.362;12.472;2023-04-03T11:15:53;101579.63;;;5.09;51.71
74268;BME280;62638;51.362;12.472;2023-04-03T11:18:23;101596.56;;;4.89;52.86
74268;BME280;62638;51.362;12.472;2023-04-03T11:21:07;101584.16;;;4.90;52.10
74268;BME280;62638;51.362;12.472;2023-04-03T11:23:39;101593.78;;;5.27;52.18
74268;BME280;62638;51.362;12.472;2023-04-03T11:26:13;101588.69;;;6.24;48.48
74268;BME280;62638;51.362;12.472;2023-04-03T11:28:40;101584.13;;;6.26;45.39
74268;BME280;62638;51.362;12.472;2023-04-03T11:37:23;101573.28;;;4.77;50.72
74268;BME280;62638;51.362;12.472;2023-04-03T11:40:02;101573.75;;;4.85;52.59
74268;BME280;62638;51.362;12.472;2023-04-03T11:42:42;101580.28;;;5.31;51.44
74268;BME280;62638;51.362;12.472;2023-04-03T11:50:46;101573.72;;;5.38;46.56
74268;BME280;62638;51.362;12.472;2023-04-03T11:56:02;101567.69;;;5.86;47.72
74268;BME280;62638;51.362;12.472;2023-04-03T11:58:32;101570.63;;;6.13;47.67
74268;BME280;62638;51.362;12.472;2023-04-03T12:01:04;101565.97;;;5.51;47.96
74268;BME280;62638;51.362;12.472;2023-04-03T12:24:12;101556.06;;;5.37;48.39
74268;BME280;62638;51.362;12.472;2023-04-03T12:27:02;101549.66;;;5.24;48.59
74268;BME280;62638;51.362;12.472;2023-04-03T12:45:43;101538.56;;;5.33;50.77
74268;BME280;62638;51.362;12.472;2023-04-03T12:48:14;101537.28;;;4.89;51.39
74268;BME280;62638;51.362;12.472;2023-04-03T12:50:41;101537.97;;;4.39;51.12
74268;BME280;62638;51.362;12.472;2023-04-03T12:53:16;101545.72;;;4.80;53.03
74268;BME280;62638;51.362;12.472;2023-04-03T12:55:43;101536.69;;;4.48;51.41
74268;BME280;62638;51.362;12.472;2023-04-03T12:58:25;101539.84;;;4.73;51.44
74268;BME280;62638;51.362;12.472;2023-04-03T13:01:04;101541.22;;;5.33;50.83
74268;BME280;62638;51.362;12.472;2023-04-03T13:03:40;101542.94;;;5.00;50.23
74268;BME280;62638;51.362;12.472;2023-04-03T13:06:16;101538.53;;;4.82;50.08
74268;BME280;62638;51.362;12.472;2023-04-03T13:08:56;101537.94;;;5.11;50.04
74268;BME280;62638;51.362;12.472;2023-04-03T13:11:24;101540.28;;;5.17;50.00
74268;BME280;62638;51.362;12.472;2023-04-03T13:14:15;101532.56;;;4.95;50.00
74268;BME280;62638;51.362;12.472;2023-04-03T13:16:41;101540.13;;;5.20;51.62
74268;BME280;62638;51.362;12.472;2023-04-03T13:19:17;101534.63;;;5.40;52.23
74268;BME280;62638;51.362;12.472;2023-04-03T13:21:42;101532.69;;;5.44;49.86
74268;BME280;62638;51.362;12.472;2023-04-03T13:24:09;101526.78;;;5.22;50.14
74268;BME280;62638;51.362;12.472;2023-04-03T13:26:35;101546.53;;;4.99;49.75
74268;BME280;62638;51.362;12.472;2023-04-03T13:29:20;101535.22;;;5.30;51.26
74268;BME280;62638;51.362;12.472;2023-04-03T13:31:53;101536.22;;;5.10;50.66
74268;BME280;62638;51.362;12.472;2023-04-03T13:34:20;101532.06;;;4.70;49.81
74268;BME280;62638;51.362;12.472;2023-04-03T13:41:44;101535.94;;;4.44;50.18
74268;BME280;62638;51.362;12.472;2023-04-03T13:46:59;101529.00;;;4.61;50.20
74268;BME280;62638;51.362;12.472;2023-04-03T13:49:39;101514.69;;;4.63;50.33
74268;BME280;62638;51.362;12.472;2023-04-03T13:52:27;101532.50;;;4.61;49.79
74268;BME280;62638;51.362;12.472;2023-04-03T13:54:59;101527.94;;;4.82;49.36
74268;BME280;62638;51.362;12.472;2023-04-03T13:57:25;101526.84;;;4.86;49.53
74268;BME280;62638;51.362;12.472;2023-04-03T13:59:50;101525.44;;;4.96;49.44
74268;BME280;62638;51.362;12.472;2023-04-03T14:02:38;101530.75;;;4.79;49.74
74268;BME280;62638;51.362;12.472;2023-04-03T14:05:04;101523.19;;;4.52;49.72
74268;BME280;62638;51.362;12.472;2023-04-03T14:07:33;101524.59;;;4.60;50.62
74268;BME280;62638;51.362;12.472;2023-04-03T14:09:58;101528.34;;;4.55;50.85
74268;BME280;62638;51.362;12.472;2023-04-03T14:12:35;101513.69;;;4.30;52.44
74268;BME280;62638;51.362;12.472;2023-04-03T14:15:04;101522.06;;;4.39;52.20
74268;BME280;62638;51.362;12.472;2023-04-03T14:17:30;101525.44;;;4.43;51.12
74268;BME280;62638;51.362;12.472;2023-04-03T14:19:57;101515.91;;;4.39;52.10
74268;BME280;62638;51.362;12.472;2023-04-03T14:22:26;101522.34;;;4.33;51.97